CheckWX is a tool to help pilots better visualize weather data.  It is not intended as a substitute for an official pre-flight weather briefing.

03:22:02 UTC

KSEZ TAF
Sedona Airport
Sedona, Arizona, USA
KSEZ 012357Z 0200/0224 19013G22KT P6SM SCT250 FM020300 19011KT P6SM FEW250 FM021600 19013G23KT P6SM SKC

Apr-2@
00:00 UTC

Apr-2 @ 00:00 UTC

Apr-2@
03:00 UTC

Apr-2 @ 03:00 UTC

TAF KSEZ 012357Z 0200/0224 19013G22KT P6SM SCT250

Expired

Wind
  • 190° at 13 KTS
  • {Gusting to 22 KTS
Cloud Levels
  • Scattered at 25,000' AGL

Apr-2@
03:00 UTC

Apr-2 @ 03:00 UTC

Apr-2@
16:00 UTC

Apr-2 @ 16:00 UTC

FM020300 19011KT P6SM FEW250

From

From Standard forecast or significant change

Wind
  • 190° at 11 KTS
Cloud Levels
  • Few at 25,000' AGL

Apr-2@
16:00 UTC

Apr-2 @ 16:00 UTC

Apr-3@
00:00 UTC

Apr-3 @ 00:00 UTC

FM021600 19013G23KT P6SM SKC

From

From Standard forecast or significant change

Wind
  • 190° at 13 KTS
  • {Gusting to 23 KTS
Cloud Levels
  • Clear skies